Time;durP1;ratioP1;P1;durP2;ratioP2;P2;SDS_P1;SDS_P2;PMS_P1;PMS_P2;Temp;Humidity;BMP_temperature;BMP_pressure;BME280_temperature;BME280_humidity;BME280_pressure;Samples;Min_cycle;Max_cycle;Signal;HPM_P1;HPM_P2
2021/05/13 00:00:31;;;;;;;;;;;;;;;15.65;64.96;96041.42;1655543;86;20523;-78
2021/05/13 00:02:59;;;;;;;;;;;;;;;15.65;64.44;96040.09;1675642;85;20152;-78
2021/05/13 00:05:26;;;;;;;;;;;;;;;15.68;61.76;96041.55;1675703;86;20499;-77
2021/05/13 00:07:52;;;;;;;;;;;;;;;15.66;64.72;96045.73;1675712;86;20183;-78
2021/05/13 00:10:20;;;;;;;;;;;;;;;15.67;63.27;96050.52;1671418;85;20178;-76
2021/05/13 00:15:22;;;;;;;;;;;;;;;15.60;63.99;96047.27;1669214;85;20165;-80
2021/05/13 00:17:49;;;;;;;;;;;;;;;15.65;66.14;96037.92;1674940;85;20504;-76
2021/05/13 00:20:20;;;;;;;;;;;;;;;15.66;66.03;96046.22;1676712;85;20175;-75
2021/05/13 00:22:47;;;;;;;;;;;;;;;15.65;63.98;96044.56;1662990;85;20462;-77
2021/05/13 00:25:14;;;;;;;;;;;;;;;15.58;65.30;96042.64;1637772;88;20451;-78
2021/05/13 00:27:40;;;;;;;;;;;;;;;15.54;65.37;96044.02;1658629;85;20496;-75
2021/05/13 00:30:08;;;;;;;;;;;;;;;15.53;65.42;96038.87;1682884;85;20139;-75
2021/05/13 00:32:38;;;;;;;;;;;;;;;15.51;65.96;96044.86;1682764;85;20174;-78
2021/05/13 00:35:06;;;;;;;;;;;;;;;15.49;66.28;96046.38;1672752;85;20172;-79
2021/05/13 00:37:32;;;;;;;;;;;;;;;15.46;64.12;96047.56;1639168;86;20239;-77
2021/05/13 00:39:58;;;;;;;;;;;;;;;15.43;66.84;96042.60;1680731;85;20175;-77
2021/05/13 00:42:24;;;;;;;;;;;;;;;15.47;66.99;96039.08;1682592;85;20491;-78
2021/05/13 00:44:53;;;;;;;;;;;;;;;15.46;67.93;96034.29;1671277;85;20501;-78
2021/05/13 00:47:19;;;;;;;;;;;;;;;15.51;67.79;96031.58;1666777;85;20158;-78
2021/05/13 00:49:46;;;;;;;;;;;;;;;15.54;68.19;96028.09;1665651;85;20157;-77
2021/05/13 00:52:13;;;;;;;;;;;;;;;15.57;68.08;96026.38;1655293;87;20149;-78
2021/05/13 00:54:45;;;;;;;;;;;;;;;15.61;68.05;96025.51;1654757;86;20207;-79
2021/05/13 00:57:13;;;;;;;;;;;;;;;15.64;68.06;96024.34;1660755;85;20192;-78
2021/05/13 00:59:43;;;;;;;;;;;;;;;15.67;67.86;96024.80;1671888;85;20161;-76
2021/05/13 01:02:09;;;;;;;;;;;;;;;15.69;67.33;96020.63;1651317;87;20517;-77
2021/05/13 01:04:35;;;;;;;;;;;;;;;15.71;67.32;96019.95;1651459;86;20229;-77
2021/05/13 01:07:01;;;;;;;;;;;;;;;15.72;69.37;96024.26;1673555;85;20258;-79
2021/05/13 01:09:31;;;;;;;;;;;;;;;15.70;67.93;96026.27;1662845;85;20217;-76
2021/05/13 01:12:01;;;;;;;;;;;;;;;15.72;68.72;96024.26;1651275;86;20169;-78
2021/05/13 01:14:38;;;;;;;;;;;;;;;15.76;69.09;96026.86;1661338;85;20163;-77
2021/05/13 01:19:50;;;;;;;;;;;;;;;15.77;68.17;96022.70;1678465;85;20171;-77
2021/05/13 01:22:17;;;;;;;;;;;;;;;15.75;68.22;96028.70;1678690;85;20244;-76
2021/05/13 01:24:44;;;;;;;;;;;;;;;15.73;68.03;96025.91;1622403;86;20156;-77
2021/05/13 01:27:10;;;;;;;;;;;;;;;15.69;68.06;96022.77;1637645;88;20165;-78
2021/05/13 01:29:44;;;;;;;;;;;;;;;15.64;66.79;96017.70;1637516;88;20173;-79
2021/05/13 01:32:09;;;;;;;;;;;;;;;15.56;66.57;96022.06;1637961;87;20197;-79
2021/05/13 01:34:35;;;;;;;;;;;;;;;15.48;67.51;96027.45;1661346;86;20167;-77
2021/05/13 01:37:01;;;;;;;;;;;;;;;15.42;69.05;96022.87;1646892;86;20158;-77
2021/05/13 01:39:27;;;;;;;;;;;;;;;15.42;68.92;96029.52;1664460;86;20191;-77
2021/05/13 01:41:53;;;;;;;;;;;;;;;15.43;70.01;96028.52;1664413;86;20151;-77
2021/05/13 01:44:19;;;;;;;;;;;;;;;15.40;67.99;96019.57;1643851;86;20486;-75
2021/05/13 01:46:47;;;;;;;;;;;;;;;15.34;68.43;96021.63;1637522;88;20161;-78
2021/05/13 01:49:18;;;;;;;;;;;;;;;15.34;69.42;96024.28;1655533;86;20151;-77
2021/05/13 01:51:45;;;;;;;;;;;;;;;15.37;70.48;96027.89;1663904;86;20206;-77
2021/05/13 01:54:15;;;;;;;;;;;;;;;15.41;69.29;96030.00;1645227;86;20157;-76
2021/05/13 01:56:41;;;;;;;;;;;;;;;15.42;69.04;96028.19;1662760;86;20471;-77
2021/05/13 01:59:08;;;;;;;;;;;;;;;15.44;70.23;96028.33;1664373;86;20174;-77
2021/05/13 02:01:34;;;;;;;;;;;;;;;15.49;69.52;96031.77;1664442;86;20174;-77
2021/05/13 02:04:01;;;;;;;;;;;;;;;15.53;69.29;96022.94;1647870;86;20161;-79
2021/05/13 02:06:27;;;;;;;;;;;;;;;15.56;69.98;96025.24;1639548;86;20177;-78
2021/05/13 02:08:53;;;;;;;;;;;;;;;15.57;69.87;96021.58;1654597;86;20179;-79
2021/05/13 02:11:19;;;;;;;;;;;;;;;15.57;69.09;96023.72;1664636;86;20158;-80
2021/05/13 02:13:46;;;;;;;;;;;;;;;15.52;70.62;96023.45;1651027;86;20153;-79
2021/05/13 02:16:12;;;;;;;;;;;;;;;15.45;69.98;96026.52;1637710;87;20169;-80
2021/05/13 02:18:39;;;;;;;;;;;;;;;15.43;68.83;96022.69;1637957;88;20157;-80
2021/05/13 02:21:07;;;;;;;;;;;;;;;15.37;69.37;96018.59;1638004;86;20157;-79
2021/05/13 02:23:33;;;;;;;;;;;;;;;15.34;70.80;96021.63;1648721;86;20162;-78
2021/05/13 02:26:02;;;;;;;;;;;;;;;15.34;70.99;96017.64;1664566;86;20162;-78
2021/05/13 02:28:27;;;;;;;;;;;;;;;15.26;71.34;96018.53;1639840;86;20157;-78
2021/05/13 02:30:53;;;;;;;;;;;;;;;15.24;70.79;96021.86;1649558;86;20199;-76
2021/05/13 02:33:19;;;;;;;;;;;;;;;15.24;70.56;96020.05;1662854;86;20250;-77
2021/05/13 02:35:45;;;;;;;;;;;;;;;15.28;70.55;96023.98;1650884;86;20457;-76
2021/05/13 02:38:11;;;;;;;;;;;;;;;15.29;68.96;96023.49;1652955;86;20193;-77
2021/05/13 02:40:39;;;;;;;;;;;;;;;15.24;70.40;96013.89;1637670;88;20485;-79
2021/05/13 02:43:06;;;;;;;;;;;;;;;15.26;70.44;96019.38;1637781;86;20164;-74
2021/05/13 02:45:32;;;;;;;;;;;;;;;15.29;70.68;96015.53;1659529;86;20241;-78
2021/05/13 02:47:58;;;;;;;;;;;;;;;15.30;71.66;96021.16;1639302;86;20480;-79
2021/05/13 02:50:25;;;;;;;;;;;;;;;15.35;70.81;96023.28;1664478;86;20523;-78
2021/05/13 02:52:51;;;;;;;;;;;;;;;15.38;71.39;96022.91;1664314;86;20495;-82
2021/05/13 02:55:19;;;;;;;;;;;;;;;15.37;69.63;96026.56;1667156;85;20262;-79
2021/05/13 02:57:46;;;;;;;;;;;;;;;15.30;69.93;96021.16;1665264;86;20528;-77
2021/05/13 03:00:21;;;;;;;;;;;;;;;15.22;70.46;96020.72;1663600;85;20484;-82
2021/05/13 03:02:43;;;;;;;;;;;;;;;15.11;69.23;96019.81;1637271;86;20194;-81
2021/05/13 03:05:10;;;;;;;;;;;;;;;15.02;71.24;96020.39;1660335;86;20492;-81
2021/05/13 03:07:44;;;;;;;;;;;;;;;14.98;74.16;96017.76;1677559;85;20221;-77
2021/05/13 03:10:15;;;;;;;;;;;;;;;14.89;74.81;96024.97;1680347;85;20159;-79
2021/05/13 03:12:36;;;;;;;;;;;;;;;14.71;75.42;96015.95;1681656;85;20503;-78
2021/05/13 03:15:02;;;;;;;;;;;;;;;14.59;75.57;96013.34;1682708;85;20158;-79
2021/05/13 03:17:28;;;;;;;;;;;;;;;14.54;72.92;96015.19;1681954;85;20173;-78
2021/05/13 03:19:58;;;;;;;;;;;;;;;14.43;73.04;96011.62;1676537;85;20158;-78
2021/05/13 03:22:22;;;;;;;;;;;;;;;14.35;72.98;96004.02;1677736;85;20151;-78
2021/05/13 03:24:51;;;;;;;;;;;;;;;14.27;72.91;96008.04;1658329;85;20167;-76
2021/05/13 03:29:54;;;;;;;;;;;;;;;14.31;70.65;96019.96;1679756;85;20187;-78
2021/05/13 03:32:21;;;;;;;;;;;;;;;14.23;74.39;96016.03;1682653;85;20476;-75
2021/05/13 03:34:47;;;;;;;;;;;;;;;14.15;73.87;96013.41;1681034;85;20159;-77
2021/05/13 03:37:14;;;;;;;;;;;;;;;14.15;72.51;96013.41;1677238;85;20528;-78
2021/05/13 03:39:40;;;;;;;;;;;;;;;14.13;72.27;96012.75;1659922;85;20517;-77
2021/05/13 03:42:06;;;;;;;;;;;;;;;14.09;74.92;96014.08;1674872;85;20478;-77
2021/05/13 03:44:32;;;;;;;;;;;;;;;13.99;74.29;96003.19;1660578;85;20546;-75
2021/05/13 03:46:59;;;;;;;;;;;;;;;13.87;74.09;96009.36;1655452;85;20169;-78
2021/05/13 03:49:25;;;;;;;;;;;;;;;13.79;75.95;96008.06;1655403;87;20153;-77
2021/05/13 03:51:51;;;;;;;;;;;;;;;13.72;76.95;96014.53;1674686;85;20166;-78
2021/05/13 03:54:17;;;;;;;;;;;;;;;13.76;75.42;96018.17;1658156;85;20201;-80
2021/05/13 03:56:43;;;;;;;;;;;;;;;13.79;75.31;96013.84;1652963;86;20237;-77
2021/05/13 03:59:17;;;;;;;;;;;;;;;13.80;75.54;96030.06;1646650;86;20517;-77
2021/05/13 04:02:05;;;;;;;;;;;;;;;13.78;75.97;96034.73;1662795;86;20171;-80
2021/05/13 04:04:19;;;;;;;;;;;;;;;13.73;74.34;96034.73;1663313;85;20163;-83
2021/05/13 04:06:45;;;;;;;;;;;;;;;13.71;76.52;96034.58;1667896;85;20577;-75
2021/05/13 04:09:12;;;;;;;;;;;;;;;13.72;77.89;96024.31;1674259;85;20170;-78
2021/05/13 04:11:39;;;;;;;;;;;;;;;13.75;78.75;96021.30;1669892;84;20217;-75
2021/05/13 04:14:07;;;;;;;;;;;;;;;13.79;75.81;96023.95;1655921;87;20535;-79
2021/05/13 04:16:36;;;;;;;;;;;;;;;13.83;75.88;96019.95;1648822;87;20183;-76
2021/05/13 04:19:02;;;;;;;;;;;;;;;13.91;77.52;96028.39;1667031;85;20286;-77
2021/05/13 04:21:29;;;;;;;;;;;;;;;13.94;79.96;96025.41;1670787;85;20590;-77
2021/05/13 04:23:56;;;;;;;;;;;;;;;13.98;76.45;96020.59;1654684;85;20201;-75
2021/05/13 04:26:22;;;;;;;;;;;;;;;13.97;76.21;96015.77;1671518;85;20191;-77
2021/05/13 04:28:49;;;;;;;;;;;;;;;13.97;78.01;96019.75;1656508;85;20495;-80
2021/05/13 04:31:15;;;;;;;;;;;;;;;14.00;76.97;96019.41;1678866;85;20482;-80
2021/05/13 04:33:41;;;;;;;;;;;;;;;14.11;77.78;96017.39;1663284;85;20210;-79
2021/05/13 04:36:07;;;;;;;;;;;;;;;14.08;78.39;96013.27;1651870;85;20177;-79
2021/05/13 04:38:34;;;;;;;;;;;;;;;14.10;75.58;96018.39;1651430;86;20225;-77
2021/05/13 04:41:00;;;;;;;;;;;;;;;14.07;75.97;96028.84;1661954;85;20518;-79
2021/05/13 04:43:35;;;;;;;;;;;;;;;14.01;77.16;96025.05;1662061;85;20571;-81
2021/05/13 04:46:01;;;;;;;;;;;;;;;14.00;75.95;96026.04;1651335;85;20202;-78
2021/05/13 04:48:39;;;;;;;;;;;;;;;14.05;76.92;96024.20;1665205;85;20178;-78
2021/05/13 04:50:57;;;;;;;;;;;;;;;14.09;75.81;96024.68;1665495;85;20766;-77
2021/05/13 04:53:23;;;;;;;;;;;;;;;14.12;75.15;96022.52;1651407;87;20161;-77
2021/05/13 04:55:49;;;;;;;;;;;;;;;14.05;76.30;96030.83;1652743;86;20173;-78
2021/05/13 04:58:15;;;;;;;;;;;;;;;14.01;75.33;96026.88;1669074;86;20517;-78
2021/05/13 05:00:41;;;;;;;;;;;;;;;13.96;78.38;96024.75;1669319;85;20155;-77
2021/05/13 05:03:09;;;;;;;;;;;;;;;14.02;76.56;96019.23;1669165;85;20188;-78
2021/05/13 05:05:35;;;;;;;;;;;;;;;14.03;77.05;96028.36;1669053;86;20190;-77
2021/05/13 05:08:01;;;;;;;;;;;;;;;14.06;76.89;96024.02;1669215;86;20153;-77
2021/05/13 05:10:28;;;;;;;;;;;;;;;14.12;76.64;96019.05;1675373;85;20170;-77
2021/05/13 05:12:54;;;;;;;;;;;;;;;14.15;75.99;96026.66;1697110;84;20169;-78
2021/05/13 05:15:20;;;;;;;;;;;;;;;14.18;77.96;96029.80;1697085;85;20146;-78
2021/05/13 05:17:46;;;;;;;;;;;;;;;14.26;75.51;96028.91;1696905;84;20178;-77
2021/05/13 05:20:13;;;;;;;;;;;;;;;14.31;76.27;96027.07;1696902;85;20127;-77
2021/05/13 05:22:39;;;;;;;;;;;;;;;14.34;75.93;96026.73;1697006;85;20162;-77
2021/05/13 05:25:08;;;;;;;;;;;;;;;14.39;75.49;96027.03;1696573;85;20190;-77
2021/05/13 05:27:34;;;;;;;;;;;;;;;14.48;74.70;96020.68;1695262;85;20142;-77
2021/05/13 05:30:01;;;;;;;;;;;;;;;14.50;74.50;96021.86;1696819;85;20146;-78
2021/05/13 05:32:27;;;;;;;;;;;;;;;14.52;75.22;96022.52;1697011;84;20174;-77
2021/05/13 05:34:53;;;;;;;;;;;;;;;14.53;74.87;96022.81;1697055;85;20182;-79
2021/05/13 05:37:19;;;;;;;;;;;;;;;14.58;74.37;96023.61;1685195;85;20177;-78
2021/05/13 05:39:45;;;;;;;;;;;;;;;14.58;74.98;96025.78;1669356;85;20469;-81
2021/05/13 05:42:11;;;;;;;;;;;;;;;14.62;74.20;96024.41;1669017;85;20517;-78
2021/05/13 05:44:38;;;;;;;;;;;;;;;14.73;74.45;96020.59;1669250;85;20603;-79
2021/05/13 05:47:04;;;;;;;;;;;;;;;14.87;73.79;96020.33;1669152;86;20553;-78
2021/05/13 05:49:31;;;;;;;;;;;;;;;14.90;73.28;96021.80;1669417;86;20490;-77
2021/05/13 05:51:57;;;;;;;;;;;;;;;14.92;73.03;96023.27;1669078;85;20478;-78
2021/05/13 05:54:23;;;;;;;;;;;;;;;14.94;73.33;96025.25;1670951;85;20504;-79
2021/05/13 05:56:49;;;;;;;;;;;;;;;15.07;73.09;96029.96;1662763;85;20188;-80
2021/05/13 05:59:15;;;;;;;;;;;;;;;15.24;73.30;96023.19;1651520;86;20157;-78
2021/05/13 06:01:43;;;;;;;;;;;;;;;15.39;72.39;96024.55;1653206;85;20181;-79
2021/05/13 06:04:09;;;;;;;;;;;;;;;15.52;71.55;96024.78;1662820;85;20143;-78
2021/05/13 06:06:37;;;;;;;;;;;;;;;15.48;71.18;96024.80;1678710;85;20527;-82
2021/05/13 06:09:04;;;;;;;;;;;;;;;15.49;70.91;96024.31;1678927;85;20191;-79
2021/05/13 06:11:30;;;;;;;;;;;;;;;15.44;70.91;96024.34;1676747;85;20547;-78
2021/05/13 06:13:57;;;;;;;;;;;;;;;15.50;70.60;96027.30;1678677;85;20492;-80
2021/05/13 06:16:23;;;;;;;;;;;;;;;15.49;70.62;96019.01;1678883;85;20219;-79
2021/05/13 06:18:53;;;;;;;;;;;;;;;15.49;70.69;96024.31;1671373;85;20236;-79
2021/05/13 06:21:19;;;;;;;;;;;;;;;15.56;70.66;96026.56;1650643;85;20193;-79
2021/05/13 06:23:51;;;;;;;;;;;;;;;15.71;70.70;96030.58;1651368;86;20474;-80
2021/05/13 06:26:23;;;;;;;;;;;;;;;15.66;70.15;96027.63;1651627;85;20237;-77
2021/05/13 06:28:49;;;;;;;;;;;;;;;15.66;70.51;96028.46;1657654;85;20564;-82
2021/05/13 06:31:15;;;;;;;;;;;;;;;15.73;70.52;96027.24;1679126;85;20464;-78
2021/05/13 06:33:42;;;;;;;;;;;;;;;15.88;70.01;96027.25;1630073;86;20509;-81
2021/05/13 06:36:09;;;;;;;;;;;;;;;15.89;69.39;96025.77;1638241;86;20181;-77
2021/05/13 06:38:35;;;;;;;;;;;;;;;15.74;69.45;96024.39;1637773;88;20141;-77
2021/05/13 06:41:02;;;;;;;;;;;;;;;15.71;69.36;96021.28;1652713;86;20162;-78
2021/05/13 06:43:28;;;;;;;;;;;;;;;15.70;69.54;96020.44;1648271;86;20162;-81
2021/05/13 06:45:54;;;;;;;;;;;;;;;15.73;69.50;96017.94;1662425;86;20157;-75
2021/05/13 06:48:20;;;;;;;;;;;;;;;15.96;69.16;96012.55;1663358;85;20155;-75
2021/05/13 06:50:46;;;;;;;;;;;;;;;16.27;68.85;96016.03;1678821;85;20159;-75
2021/05/13 06:53:12;;;;;;;;;;;;;;;16.70;67.68;96012.12;1661646;85;20146;-74
2021/05/13 06:55:38;;;;;;;;;;;;;;;17.27;65.11;96012.28;1651314;86;20162;-74
2021/05/13 06:58:04;;;;;;;;;;;;;;;17.84;66.30;96000.30;1654141;86;20153;-73
2021/05/13 07:00:30;;;;;;;;;;;;;;;17.84;64.04;96009.09;1655177;86;20142;-77
2021/05/13 07:02:57;;;;;;;;;;;;;;;17.70;63.16;95994.05;1660130;85;20223;-78
2021/05/13 07:05:23;;;;;;;;;;;;;;;17.84;63.15;96000.30;1637794;86;20169;-78
2021/05/13 07:07:49;;;;;;;;;;;;;;;18.39;61.29;95999.87;1637620;88;20169;-76
2021/05/13 07:10:15;;;;;;;;;;;;;;;19.13;62.16;95996.05;1637819;88;20165;-77
2021/05/13 07:12:41;;;;;;;;;;;;;;;19.50;60.60;95989.79;1643188;86;20168;-74
2021/05/13 07:15:08;;;;;;;;;;;;;;;19.80;59.52;95989.88;1653859;86;20208;-75
2021/05/13 07:17:34;;;;;;;;;;;;;;;20.24;56.61;95981.64;1676242;85;20171;-78
2021/05/13 07:20:00;;;;;;;;;;;;;;;20.60;56.33;95973.55;1675204;85;20174;-73
2021/05/13 07:22:27;;;;;;;;;;;;;;;21.14;55.20;95980.47;1638507;87;20519;-82
2021/05/13 07:24:53;;;;;;;;;;;;;;;21.10;51.08;95979.24;1638393;86;20161;-74
2021/05/13 07:27:20;;;;;;;;;;;;;;;21.27;54.42;95983.56;1666903;85;20190;-77
2021/05/13 07:29:47;;;;;;;;;;;;;;;21.13;51.19;95975.61;1682592;85;20496;-78
2021/05/13 07:32:13;;;;;;;;;;;;;;;20.49;52.64;95971.55;1682688;85;20147;-75
2021/05/13 07:34:39;;;;;;;;;;;;;;;20.09;53.42;95972.54;1682671;85;20150;-76
2021/05/13 07:37:06;;;;;;;;;;;;;;;19.62;54.55;95975.31;1682609;85;20167;-76
2021/05/13 07:39:32;;;;;;;;;;;;;;;19.39;55.12;95973.07;1680616;85;20183;-77
2021/05/13 07:41:59;;;;;;;;;;;;;;;19.20;55.25;95970.69;1659886;85;20507;-75
2021/05/13 07:44:26;;;;;;;;;;;;;;;19.37;55.99;95968.44;1681246;85;20159;-82
2021/05/13 07:46:54;;;;;;;;;;;;;;;19.63;55.90;95964.89;1683273;85;20491;-82
2021/05/13 07:49:20;;;;;;;;;;;;;;;19.74;54.57;95962.62;1683482;85;20135;-76
2021/05/13 07:51:46;;;;;;;;;;;;;;;19.64;55.28;95959.05;1656630;85;20547;-78
2021/05/13 07:54:13;;;;;;;;;;;;;;;19.63;55.49;95956.88;1675360;85;20447;-79
2021/05/13 07:56:39;;;;;;;;;;;;;;;19.64;55.12;95947.83;1683158;85;20179;-82
2021/05/13 07:59:05;;;;;;;;;;;;;;;19.72;54.96;95956.69;1684201;85;20139;-80
2021/05/13 08:01:31;;;;;;;;;;;;;;;20.03;55.14;95951.16;1644746;86;20179;-78
2021/05/13 08:03:58;;;;;;;;;;;;;;;20.36;52.34;95956.38;1660417;86;20170;-77
2021/05/13 08:06:24;;;;;;;;;;;;;;;20.41;52.81;95941.86;1669690;86;20191;-75
2021/05/13 08:08:50;;;;;;;;;;;;;;;20.12;52.19;95942.70;1674826;86;20200;-77
2021/05/13 08:11:16;;;;;;;;;;;;;;;20.32;53.57;95949.83;1664031;86;20253;-78
2021/05/13 08:13:42;;;;;;;;;;;;;;;20.46;51.65;95941.22;1648753;86;20203;-80
2021/05/13 08:16:08;;;;;;;;;;;;;;;20.22;52.11;95943.58;1668115;86;20196;-76
2021/05/13 08:18:34;;;;;;;;;;;;;;;20.03;52.62;95943.14;1674886;86;20250;-77
2021/05/13 08:21:01;;;;;;;;;;;;;;;19.88;52.70;95939.37;1651528;86;20516;-75
2021/05/13 08:23:28;;;;;;;;;;;;;;;19.91;53.81;95937.63;1647622;87;20215;-77
2021/05/13 08:25:54;;;;;;;;;;;;;;;20.15;53.26;95932.59;1648286;86;20198;-78
2021/05/13 08:28:21;;;;;;;;;;;;;;;20.52;52.55;95925.63;1674597;86;20168;-77
2021/05/13 08:30:47;;;;;;;;;;;;;;;20.64;51.87;95927.62;1674822;86;20217;-77
2021/05/13 08:33:13;;;;;;;;;;;;;;;20.58;51.17;95923.42;1660806;86;20530;-73
2021/05/13 08:35:39;;;;;;;;;;;;;;;20.34;51.05;95933.55;1664158;86;20163;-75
2021/05/13 08:38:05;;;;;;;;;;;;;;;20.23;51.82;95932.38;1674897;86;20238;-76
2021/05/13 08:40:32;;;;;;;;;;;;;;;20.25;51.53;95929.78;1648660;86;20182;-77
2021/05/13 08:42:59;;;;;;;;;;;;;;;20.22;51.89;95936.08;1647545;87;20171;-78
2021/05/13 08:45:27;;;;;;;;;;;;;;;20.04;52.20;95935.42;1647830;87;20174;-75
2021/05/13 08:47:53;;;;;;;;;;;;;;;19.84;52.74;95934.12;1647604;87;20181;-73
2021/05/13 08:50:20;;;;;;;;;;;;;;;19.63;53.55;95938.70;1647643;87;20214;-72
2021/05/13 08:52:46;;;;;;;;;;;;;;;19.56;53.94;95935.22;1674483;86;20280;-77
2021/05/13 08:55:13;;;;;;;;;;;;;;;19.46;54.38;95936.97;1674903;86;20168;-79
2021/05/13 08:57:39;;;;;;;;;;;;;;;19.33;55.97;95941.31;1675904;85;20210;-75
2021/05/13 09:00:07;;;;;;;;;;;;;;;19.10;56.35;95943.57;1678039;86;20212;-77
2021/05/13 09:02:33;;;;;;;;;;;;;;;18.76;57.58;95952.85;1677985;86;20208;-79
2021/05/13 09:05:00;;;;;;;;;;;;;;;18.47;55.93;95942.02;1678164;85;20160;-79
2021/05/13 09:07:29;;;;;;;;;;;;;;;18.20;56.79;95933.94;1677985;86;20199;-74
2021/05/13 09:10:08;;;;;;;;;;;;;;;17.89;58.00;95934.72;1678130;86;20536;-77
2021/05/13 09:12:39;;;;;;;;;;;;;;;17.73;57.22;95934.53;1668083;85;20517;-76
2021/05/13 09:15:14;;;;;;;;;;;;;;;17.66;56.27;95931.50;1653301;86;20156;-77
2021/05/13 09:17:43;;;;;;;;;;;;;;;17.45;57.56;95938.05;1646672;86;20156;-75
2021/05/13 09:20:29;;;;;;;;;;;;;;;17.31;56.72;95927.81;1671921;86;20174;-74
2021/05/13 09:23:11;;;;;;;;;;;;;;;17.25;56.60;95928.60;1653903;86;20177;-77
2021/05/13 09:25:37;;;;;;;;;;;;;;;17.19;57.75;95928.02;1674975;86;20170;-78
2021/05/13 09:28:03;;;;;;;;;;;;;;;17.15;58.89;95924.93;1674828;86;20154;-81
2021/05/13 09:30:30;;;;;;;;;;;;;;;17.09;57.70;95925.72;1652365;86;20172;-75
2021/05/13 09:33:04;;;;;;;;;;;;;;;17.06;56.74;95922.09;1647669;87;20529;-76
2021/05/13 09:35:32;;;;;;;;;;;;;;;16.92;57.77;95915.00;1647600;87;20512;-74
2021/05/13 09:38:07;;;;;;;;;;;;;;;16.94;57.41;95911.65;1648094;86;20172;-74
2021/05/13 09:40:36;;;;;;;;;;;;;;;17.04;56.58;95910.00;1647746;87;20488;-75
2021/05/13 09:43:21;;;;;;;;;;;;;;;16.98;56.94;95904.94;1653457;86;20152;-74
2021/05/13 09:45:54;;;;;;;;;;;;;;;16.96;57.74;95903.81;1647434;86;20541;-78
2021/05/13 09:48:39;;;;;;;;;;;;;;;17.20;58.55;95904.91;1647607;87;20167;-76
2021/05/13 09:51:29;;;;;;;;;;;;;;;17.29;59.08;95909.88;1647776;87;20180;-78
2021/05/13 09:54:15;;;;;;;;;;;;;;;17.22;59.49;95902.36;1647705;87;20460;-78
2021/05/13 09:56:50;;;;;;;;;;;;;;;17.11;59.72;95901.55;1649506;86;20509;-78
2021/05/13 09:59:27;;;;;;;;;;;;;;;17.15;61.83;95900.97;1642465;86;20171;-75
2021/05/13 10:01:55;;;;;;;;;;;;;;;17.19;61.86;95893.41;1642197;87;20471;-78
2021/05/13 10:04:21;;;;;;;;;;;;;;;17.39;61.43;95900.22;1651408;86;20511;-76
2021/05/13 10:06:48;;;;;;;;;;;;;;;17.57;62.47;95893.56;1658512;84;20515;-73
2021/05/13 10:09:16;;;;;;;;;;;;;;;17.68;61.27;95890.31;1669114;86;20497;-74
2021/05/13 10:11:43;;;;;;;;;;;;;;;17.70;61.97;95884.80;1668816;86;20527;-77
2021/05/13 10:14:09;;;;;;;;;;;;;;;17.83;62.66;95892.84;1669282;86;20170;-75
2021/05/13 10:16:37;;;;;;;;;;;;;;;17.94;61.31;95879.48;1668876;86;20162;-75
2021/05/13 10:19:07;;;;;;;;;;;;;;;17.95;61.96;95878.46;1640311;86;20498;-75
2021/05/13 10:21:35;;;;;;;;;;;;;;;17.92;61.29;95885.52;1668094;86;20178;-78
2021/05/13 10:24:02;;;;;;;;;;;;;;;17.89;60.78;95888.07;1664259;86;20141;-75
2021/05/13 10:26:41;;;;;;;;;;;;;;;17.79;60.99;95879.09;1666900;86;20170;-76
2021/05/13 10:29:23;;;;;;;;;;;;;;;17.72;60.77;95867.59;1678444;85;20151;-76
2021/05/13 10:32:07;;;;;;;;;;;;;;;17.67;60.58;95863.88;1668243;85;20241;-77
2021/05/13 10:34:53;;;;;;;;;;;;;;;17.68;60.57;95854.34;1645486;86;20173;-76
2021/05/13 10:37:38;;;;;;;;;;;;;;;17.64;60.25;95851.78;1653599;85;20505;-76
2021/05/13 10:42:48;;;;;;;;;;;;;;;17.56;60.23;95850.62;1624659;88;20156;-75
2021/05/13 10:45:30;;;;;;;;;;;;;;;17.49;60.69;95848.72;1642115;87;20152;-77
2021/05/13 10:48:11;;;;;;;;;;;;;;;17.45;60.74;95851.48;1643940;86;20191;-73
2021/05/13 10:51:06;;;;;;;;;;;;;;;17.44;61.30;95855.69;1642004;87;20202;-76
2021/05/13 10:56:13;;;;;;;;;;;;;;;17.14;63.87;95858.58;1668738;86;20154;-78
2021/05/13 10:58:54;;;;;;;;;;;;;;;16.88;64.26;95865.83;1664806;86;20177;-75
2021/05/13 11:01:36;;;;;;;;;;;;;;;16.70;63.55;95875.91;1655485;86;20705;-74
2021/05/13 11:04:25;;;;;;;;;;;;;;;16.69;65.18;95874.29;1651431;86;20247;-74
2021/05/13 11:06:59;;;;;;;;;;;;;;;16.74;66.40;95874.20;1649924;86;20175;-75
2021/05/13 11:09:47;;;;;;;;;;;;;;;16.76;68.48;95867.67;1650882;86;20196;-76
2021/05/13 11:12:21;;;;;;;;;;;;;;;16.75;65.19;95872.67;1656367;86;20236;-75
2021/05/13 11:15:00;;;;;;;;;;;;;;;16.62;67.79;95880.04;1647219;86;20179;-77
2021/05/13 11:17:58;;;;;;;;;;;;;;;16.52;70.27;95888.35;1633323;86;20205;-76
2021/05/13 11:20:30;;;;;;;;;;;;;;;16.46;67.67;95895.77;1638863;86;20163;-76
2021/05/13 11:23:07;;;;;;;;;;;;;;;16.32;68.68;95904.12;1641276;86;20183;-75
2021/05/13 11:25:40;;;;;;;;;;;;;;;16.26;69.63;95900.05;1637004;87;20523;-74
2021/05/13 11:28:51;;;;;;;;;;;;;;;16.23;68.39;95895.95;1651526;86;20165;-75
2021/05/13 11:31:22;;;;;;;;;;;;;;;16.26;68.34;95898.73;1642594;86;20149;-74
2021/05/13 11:33:56;;;;;;;;;;;;;;;16.23;65.88;95899.41;1664972;85;20160;-75
2021/05/13 11:36:29;;;;;;;;;;;;;;;16.23;66.16;95895.42;1665725;85;20169;-75
2021/05/13 11:39:00;;;;;;;;;;;;;;;16.32;65.25;95900.13;1671039;85;20170;-74
2021/05/13 11:41:27;;;;;;;;;;;;;;;16.50;65.14;95894.36;1692212;84;20142;-74
2021/05/13 11:43:53;;;;;;;;;;;;;;;16.60;63.90;95901.20;1653007;85;20508;-77
2021/05/13 11:46:22;;;;;;;;;;;;;;;16.76;63.39;95897.46;1651976;86;20508;-74
2021/05/13 11:48:50;;;;;;;;;;;;;;;16.84;62.78;95898.13;1642894;86;20589;-73
2021/05/13 11:51:19;;;;;;;;;;;;;;;17.06;63.42;95898.66;1659672;86;20549;-74
2021/05/13 11:53:46;;;;;;;;;;;;;;;17.20;61.40;95897.72;1663765;86;20137;-74
2021/05/13 11:56:14;;;;;;;;;;;;;;;17.47;61.08;95903.22;1663829;86;20156;-73
2021/05/13 11:58:43;;;;;;;;;;;;;;;17.73;59.51;95899.05;1663770;86;20156;-74
2021/05/13 12:01:20;;;;;;;;;;;;;;;17.99;59.73;95893.57;1646848;86;20591;-74
2021/05/13 12:03:53;;;;;;;;;;;;;;;18.21;59.64;95899.59;1649639;86;20538;-77
2021/05/13 12:06:19;;;;;;;;;;;;;;;18.26;59.62;95893.13;1620394;87;20179;-75
2021/05/13 12:08:45;;;;;;;;;;;;;;;18.34;58.93;95900.13;1630847;88;20187;-76
2021/05/13 12:11:25;;;;;;;;;;;;;;;18.37;57.40;95889.88;1632469;87;20515;-74
2021/05/13 12:13:54;;;;;;;;;;;;;;;18.29;57.78;95898.07;1644493;87;20517;-75
2021/05/13 12:16:22;;;;;;;;;;;;;;;18.38;59.20;95896.86;1631113;88;20527;-74
2021/05/13 12:18:53;;;;;;;;;;;;;;;18.54;58.57;95901.00;1631035;88;20526;-75
2021/05/13 12:21:19;;;;;;;;;;;;;;;18.71;59.20;95908.09;1631773;87;20543;-73
2021/05/13 12:23:47;;;;;;;;;;;;;;;18.82;58.56;95897.34;1644726;85;20491;-77
2021/05/13 12:26:24;;;;;;;;;;;;;;;18.86;55.99;95900.41;1674987;85;20491;-75
2021/05/13 12:28:51;;;;;;;;;;;;;;;18.86;58.35;95896.41;1688210;85;20179;-74
2021/05/13 12:31:34;;;;;;;;;;;;;;;18.78;57.83;95897.42;1652566;85;20539;-75
2021/05/13 12:34:06;;;;;;;;;;;;;;;18.68;57.60;95901.00;1649517;87;20562;-74
2021/05/13 12:36:32;;;;;;;;;;;;;;;18.57;58.15;95907.25;1639983;87;20197;-74
2021/05/13 12:38:58;;;;;;;;;;;;;;;18.51;58.76;95908.59;1655411;86;20217;-73
2021/05/13 12:41:26;;;;;;;;;;;;;;;18.46;59.61;95914.53;1651818;87;20197;-75
2021/05/13 12:44:12;;;;;;;;;;;;;;;18.45;59.33;95910.22;1634251;87;20257;-74
2021/05/13 12:46:43;;;;;;;;;;;;;;;18.54;59.22;95909.01;1637682;85;20536;-75
2021/05/13 12:49:17;;;;;;;;;;;;;;;18.49;57.51;95907.97;1632869;87;20179;-74
2021/05/13 12:51:58;;;;;;;;;;;;;;;18.21;54.29;95909.73;1636835;87;20187;-73
2021/05/13 12:54:24;;;;;;;;;;;;;;;17.75;54.06;95913.00;1642366;87;20189;-75
2021/05/13 12:56:50;;;;;;;;;;;;;;;17.56;56.77;95915.36;1657527;87;20533;-75
2021/05/13 12:59:16;;;;;;;;;;;;;;;17.52;57.28;95918.13;1640081;87;20505;-74
2021/05/13 13:01:45;;;;;;;;;;;;;;;17.38;57.80;95910.55;1655358;87;20491;-75
2021/05/13 13:04:12;;;;;;;;;;;;;;;17.24;59.33;95918.97;1653579;87;20509;-75
2021/05/13 13:06:48;;;;;;;;;;;;;;;17.11;60.74;95915.70;1657790;85;20157;-75
2021/05/13 13:09:31;;;;;;;;;;;;;;;17.17;60.35;95917.58;1657184;85;20188;-75